createdAt,value
2018-12-19T00:04:48.939Z,94.99
2018-12-19T00:07:17.427Z,94.93
2018-12-19T00:09:46.722Z,94.73
2018-12-19T00:12:15.464Z,96.06
2018-12-19T00:14:44.046Z,96.09
2018-12-19T00:17:12.616Z,95.67
2018-12-19T00:19:41.106Z,95.58
2018-12-19T00:22:09.649Z,97.11
2018-12-19T00:24:38.155Z,96.23
2018-12-19T00:27:06.745Z,96.51
2018-12-19T00:29:35.285Z,96.66
2018-12-19T00:32:04.632Z,96.66
2018-12-19T00:34:33.207Z,95.34
2018-12-19T00:37:02.528Z,95.25
2018-12-19T00:39:31.011Z,96.42
2018-12-19T00:42:00.749Z,96.24
2018-12-19T00:44:29.341Z,95.99
2018-12-19T00:46:57.948Z,95.83
2018-12-19T00:49:27.451Z,95.53
2018-12-19T00:51:56.069Z,94.23
2018-12-19T00:54:24.630Z,95.61
2018-12-19T00:56:53.207Z,94.39
2018-12-19T00:59:21.764Z,95.26
2018-12-19T01:01:50.238Z,96.12
2018-12-19T01:04:18.711Z,96.26
2018-12-19T01:06:47.193Z,97.03
2018-12-19T01:09:16.083Z,96.28
2018-12-19T01:11:45.284Z,96.75
2018-12-19T01:17:06.402Z,96.31
2018-12-19T01:19:34.862Z,95.81
2018-12-19T01:22:03.367Z,96.31
2018-12-19T01:24:31.885Z,96.86
2018-12-19T01:27:00.382Z,96.88
2018-12-19T01:29:28.893Z,97.64
2018-12-19T01:31:57.908Z,97.36
2018-12-19T01:34:26.738Z,97.58
2018-12-19T01:36:55.437Z,97.19
2018-12-19T01:39:23.990Z,97.75
2018-12-19T01:41:53.049Z,97.23
2018-12-19T01:44:22.554Z,97.05
2018-12-19T01:46:51.133Z,98.11
2018-12-19T01:49:19.618Z,97.32
2018-12-19T01:51:48.053Z,96.37
2018-12-19T01:54:16.708Z,96.36
2018-12-19T01:56:45.932Z,96.03
2018-12-19T01:59:14.609Z,95.89
2018-12-19T02:01:43.099Z,96.08
2018-12-19T02:04:12.751Z,97.13
2018-12-19T02:06:41.278Z,96.02
2018-12-19T02:09:09.862Z,96.25
2018-12-19T02:11:38.338Z,96.79
2018-12-19T02:14:06.894Z,96.51
2018-12-19T02:16:35.519Z,97.15
2018-12-19T02:19:04.072Z,96.92
2018-12-19T02:21:32.642Z,96.97
2018-12-19T02:24:01.227Z,97.82
2018-12-19T02:26:30.351Z,97.10
2018-12-19T02:28:58.948Z,96.50
2018-12-19T02:31:27.622Z,96.95
2018-12-19T02:33:56.435Z,95.97
2018-12-19T02:36:25.083Z,96.56
2018-12-19T02:38:53.655Z,96.80
2018-12-19T02:41:22.199Z,96.19
2018-12-19T02:43:50.820Z,96.20
2018-12-19T02:46:19.285Z,95.62
2018-12-19T02:48:48.052Z,96.67
2018-12-19T02:51:16.586Z,96.74
2018-12-19T02:53:45.222Z,96.33
2018-12-19T02:56:13.750Z,95.94
2018-12-19T02:58:42.550Z,96.46
2018-12-19T03:01:11.134Z,96.40
2018-12-19T03:03:39.809Z,96.44
2018-12-19T03:06:08.394Z,96.33
2018-12-19T03:08:37.124Z,95.99
2018-12-19T03:11:05.901Z,95.38
2018-12-19T03:13:34.788Z,94.58
2018-12-19T03:16:03.321Z,94.53
2018-12-19T03:18:31.828Z,95.19
2018-12-19T03:21:00.534Z,95.86
2018-12-19T03:23:29.023Z,95.45
2018-12-19T03:25:57.548Z,95.29
2018-12-19T03:28:26.945Z,95.40
2018-12-19T03:30:55.488Z,95.41
2018-12-19T03:33:24.074Z,97.04
2018-12-19T03:35:52.712Z,96.90
2018-12-19T03:38:24.414Z,97.26
2018-12-19T03:40:52.961Z,96.98
2018-12-19T03:43:21.598Z,96.21
2018-12-19T03:45:50.806Z,97.50
2018-12-19T03:48:24.759Z,97.68
2018-12-19T03:50:53.386Z,97.10
2018-12-19T03:53:22.843Z,97.04
2018-12-19T03:55:51.473Z,96.72
2018-12-19T03:58:20.111Z,96.69
2018-12-19T04:00:48.948Z,96.38
2018-12-19T04:03:17.494Z,95.61
2018-12-19T04:05:46.430Z,95.16
2018-12-19T04:08:14.979Z,94.80
2018-12-19T04:10:43.794Z,94.77
2018-12-19T04:13:12.344Z,94.63
2018-12-19T04:15:40.981Z,94.63
2018-12-19T04:18:09.592Z,94.86
2018-12-19T04:20:38.052Z,95.10
2018-12-19T04:23:06.674Z,95.46
2018-12-19T04:25:35.188Z,94.50
2018-12-19T04:28:03.763Z,95.45
2018-12-19T04:30:32.242Z,94.05
2018-12-19T04:33:00.902Z,95.50
2018-12-19T04:35:29.517Z,95.85
2018-12-19T04:37:58.568Z,96.54
2018-12-19T04:40:29.157Z,95.70
2018-12-19T04:42:57.784Z,96.40
2018-12-19T04:45:26.454Z,96.27
2018-12-19T04:47:55.023Z,95.98
2018-12-19T04:50:23.589Z,95.61
2018-12-19T04:52:52.731Z,94.92
2018-12-19T04:55:21.253Z,95.71
2018-12-19T04:57:49.870Z,95.59
2018-12-19T05:00:18.425Z,95.22
2018-12-19T05:02:47.119Z,95.12
2018-12-19T05:05:15.721Z,96.37
2018-12-19T05:07:44.526Z,96.14
2018-12-19T05:10:13.862Z,95.38
2018-12-19T05:12:42.428Z,96.07
2018-12-19T05:15:10.972Z,96.64
2018-12-19T05:17:39.467Z,95.44
2018-12-19T05:20:10.782Z,96.41
2018-12-19T05:22:39.324Z,96.51
2018-12-19T05:25:11.538Z,95.89
2018-12-19T05:27:40.134Z,97.17
2018-12-19T05:30:08.758Z,95.99
2018-12-19T05:32:37.278Z,97.52
2018-12-19T05:35:07.550Z,97.62
2018-12-19T05:37:36.088Z,97.32
2018-12-19T05:40:05.283Z,96.14
2018-12-19T05:42:33.795Z,95.93
2018-12-19T05:45:02.307Z,96.30
2018-12-19T05:47:31.277Z,96.87
2018-12-19T05:49:59.804Z,98.37
2018-12-19T05:52:28.685Z,98.57
2018-12-19T05:54:57.170Z,98.23
2018-12-19T05:57:26.363Z,97.68
2018-12-19T05:59:54.819Z,97.40
2018-12-19T06:02:23.428Z,97.64
2018-12-19T06:04:51.880Z,97.79
2018-12-19T06:07:20.431Z,97.35
2018-12-19T06:09:48.972Z,97.76
2018-12-19T06:12:17.528Z,98.66
2018-12-19T06:14:46.628Z,98.57
2018-12-19T06:17:15.177Z,98.55
2018-12-19T06:19:43.789Z,98.42
2018-12-19T06:22:12.361Z,98.73
2018-12-19T06:24:40.878Z,98.30
2018-12-19T06:27:09.371Z,98.47
2018-12-19T06:29:37.932Z,97.67
2018-12-19T06:32:06.611Z,98.40
2018-12-19T06:34:35.090Z,98.09
2018-12-19T06:37:03.566Z,98.05
2018-12-19T06:39:32.123Z,98.89
2018-12-19T06:42:00.663Z,98.75
2018-12-19T06:44:29.200Z,99.75
2018-12-19T06:46:57.691Z,100.00
2018-12-19T06:49:26.198Z,99.88
2018-12-19T06:51:54.767Z,99.86
2018-12-19T06:54:23.211Z,100.00
2018-12-19T06:56:51.679Z,100.00
2018-12-19T06:59:20.197Z,100.00
2018-12-19T07:01:48.791Z,100.00
2018-12-19T07:04:17.261Z,100.00
2018-12-19T07:06:46.226Z,100.00
2018-12-19T07:09:15.030Z,100.00
2018-12-19T07:11:48.362Z,100.00
2018-12-19T07:14:30.012Z,99.85
2018-12-19T07:16:58.663Z,100.00
2018-12-19T07:19:28.142Z,100.00
2018-12-19T07:21:56.932Z,100.00
2018-12-19T07:24:25.588Z,100.00
2018-12-19T07:26:54.244Z,99.95
2018-12-19T07:29:22.805Z,100.00
2018-12-19T07:31:51.354Z,100.00
2018-12-19T07:34:19.866Z,100.00
2018-12-19T07:36:48.399Z,100.00
2018-12-19T07:39:16.988Z,100.00
2018-12-19T07:41:46.705Z,100.00
2018-12-19T07:44:15.245Z,100.00
2018-12-19T07:46:43.806Z,99.73
2018-12-19T07:49:12.368Z,99.53
2018-12-19T07:51:41.032Z,99.28
2018-12-19T07:54:09.613Z,99.01
2018-12-19T07:56:38.180Z,98.34
2018-12-19T07:59:06.989Z,98.44
2018-12-19T08:01:35.520Z,98.91
2018-12-19T08:04:04.296Z,98.43
2018-12-19T08:06:32.942Z,98.87
2018-12-19T08:09:01.581Z,98.73
2018-12-19T08:11:30.187Z,98.67
2018-12-19T08:13:58.751Z,98.99
2018-12-19T08:16:28.457Z,98.17
2018-12-19T08:18:57.043Z,99.20
2018-12-19T08:21:25.615Z,99.63
2018-12-19T08:23:54.086Z,99.04
2018-12-19T08:26:22.772Z,99.76
2018-12-19T08:28:52.769Z,98.85
2018-12-19T08:31:24.577Z,98.53
2018-12-19T08:33:53.093Z,99.40
2018-12-19T08:36:21.633Z,99.73
2018-12-19T08:38:50.692Z,99.86
2018-12-19T08:41:19.222Z,99.72
2018-12-19T08:43:48.499Z,99.52
2018-12-19T08:46:17.090Z,98.82
2018-12-19T08:48:46.322Z,97.37
2018-12-19T08:51:14.928Z,98.86
2018-12-19T08:53:43.527Z,98.25
2018-12-19T08:56:12.017Z,98.77
2018-12-19T08:58:40.690Z,98.89
2018-12-19T09:01:09.408Z,98.78
2018-12-19T09:03:38.036Z,98.20
2018-12-19T09:06:06.722Z,98.97
2018-12-19T09:08:36.715Z,98.43
2018-12-19T09:11:06.064Z,99.16
2018-12-19T09:13:34.914Z,98.88
2018-12-19T09:16:03.655Z,98.99
2018-12-19T09:18:32.390Z,98.25
2018-12-19T09:21:01.069Z,97.76
2018-12-19T09:23:29.678Z,98.66
2018-12-19T09:25:58.336Z,99.15
2018-12-19T09:28:27.886Z,98.97
2018-12-19T09:30:56.647Z,98.36
2018-12-19T09:33:27.580Z,99.45
2018-12-19T09:35:55.972Z,99.15
2018-12-19T09:38:24.583Z,99.29
2018-12-19T09:40:53.614Z,99.17
2018-12-19T09:43:22.215Z,99.07
2018-12-19T09:45:51.862Z,99.28
2018-12-19T09:48:20.672Z,99.00
2018-12-19T09:50:49.316Z,99.00
2018-12-19T09:53:18.240Z,98.45
2018-12-19T09:55:46.891Z,99.24
2018-12-19T09:58:15.440Z,99.64
2018-12-19T10:00:44.594Z,99.81
2018-12-19T10:03:13.830Z,100.00
2018-12-19T10:05:42.554Z,100.00
2018-12-19T10:08:11.239Z,100.00
2018-12-19T10:10:39.801Z,99.36
2018-12-19T10:13:08.547Z,100.00
2018-12-19T10:15:37.206Z,99.86
2018-12-19T10:18:07.225Z,100.00
2018-12-19T10:20:37.849Z,100.00
2018-12-19T10:23:07.069Z,99.64
2018-12-19T10:25:38.843Z,99.60
2018-12-19T10:28:08.108Z,99.04
2018-12-19T10:30:41.999Z,98.37
2018-12-19T10:33:11.245Z,99.21
2018-12-19T10:35:39.850Z,98.82
2018-12-19T10:38:08.530Z,98.74
2018-12-19T10:40:37.589Z,98.84
2018-12-19T10:43:07.142Z,97.28
2018-12-19T10:45:35.799Z,97.41
2018-12-19T10:48:05.540Z,96.18
2018-12-19T10:50:34.351Z,97.57
2018-12-19T10:53:03.009Z,98.65
2018-12-19T10:55:31.647Z,98.50
2018-12-19T10:58:00.237Z,98.68
2018-12-19T11:00:34.048Z,98.54
2018-12-19T11:03:02.631Z,98.38
2018-12-19T11:05:32.476Z,99.07
2018-12-19T11:08:01.156Z,99.16
2018-12-19T11:10:29.767Z,99.59
2018-12-19T11:12:58.299Z,99.90
2018-12-19T11:15:27.272Z,99.88
2018-12-19T11:17:56.993Z,100.00
2018-12-19T11:20:25.702Z,99.22
2018-12-19T11:22:54.327Z,99.22
2018-12-19T11:25:23.347Z,99.71
2018-12-19T11:27:52.514Z,98.56
2018-12-19T11:30:21.170Z,99.36
2018-12-19T11:32:49.821Z,100.00
2018-12-19T11:35:18.662Z,99.27
2018-12-19T11:37:47.363Z,99.73
2018-12-19T11:40:16.034Z,99.87
2018-12-19T11:42:47.144Z,99.62
2018-12-19T11:45:15.827Z,98.38
2018-12-19T11:47:45.052Z,98.70
2018-12-19T11:50:13.710Z,98.42
2018-12-19T11:52:42.516Z,97.28
2018-12-19T11:55:11.301Z,95.20
2018-12-19T11:57:40.736Z,94.34
2018-12-19T12:00:10.246Z,91.72
2018-12-19T12:02:38.970Z,94.07
2018-12-19T12:05:08.263Z,95.00
2018-12-19T12:07:37.191Z,95.16
2018-12-19T12:10:06.930Z,96.78
2018-12-19T12:12:35.595Z,97.42
2018-12-19T12:15:07.381Z,97.31
2018-12-19T12:17:36.358Z,97.59
2018-12-19T12:20:07.293Z,97.74
2018-12-19T12:22:36.475Z,97.01
2018-12-19T12:25:06.307Z,97.15
2018-12-19T12:27:34.915Z,96.62
2018-12-19T12:30:03.547Z,96.72
2018-12-19T12:32:32.255Z,95.28
2018-12-19T12:35:01.528Z,95.62
2018-12-19T12:37:30.617Z,96.17
2018-12-19T12:39:59.174Z,96.11
2018-12-19T12:42:29.066Z,95.77
2018-12-19T12:44:57.773Z,96.55
2018-12-19T12:47:26.740Z,96.43
2018-12-19T12:49:55.737Z,95.86
2018-12-19T12:52:24.602Z,96.19
2018-12-19T12:54:53.665Z,95.99
2018-12-19T12:57:22.245Z,95.54
2018-12-19T12:59:52.022Z,95.73
2018-12-19T13:02:21.466Z,95.83
2018-12-19T13:04:50.154Z,96.77
2018-12-19T13:07:18.951Z,95.05
2018-12-19T13:09:49.153Z,95.76
2018-12-19T13:12:17.981Z,96.04
2018-12-19T13:14:48.326Z,95.61
2018-12-19T13:17:18.008Z,95.46
2018-12-19T13:19:47.096Z,95.50
2018-12-19T13:22:15.706Z,95.82
2018-12-19T13:24:44.975Z,95.75
2018-12-19T13:27:13.795Z,95.36
2018-12-19T13:29:42.379Z,95.33
2018-12-19T13:32:11.093Z,93.84
2018-12-19T13:34:39.748Z,93.69
2018-12-19T13:37:09.054Z,93.18
2018-12-19T13:39:37.668Z,92.46
2018-12-19T13:42:06.514Z,92.52
2018-12-19T13:44:35.327Z,92.97
2018-12-19T13:47:04.663Z,93.55
2018-12-19T13:49:33.905Z,93.55
2018-12-19T13:52:02.604Z,93.41
2018-12-19T13:54:32.018Z,93.75
2018-12-19T13:57:00.711Z,93.81
2018-12-19T13:59:29.619Z,94.56
2018-12-19T14:01:58.276Z,94.04
2018-12-19T14:04:27.251Z,93.56
2018-12-19T14:06:55.857Z,93.98
2018-12-19T14:09:24.523Z,94.10
2018-12-19T14:11:53.155Z,94.60
2018-12-19T14:14:21.768Z,94.85
2018-12-19T14:16:50.337Z,95.40
2018-12-19T14:19:19.067Z,95.80
2018-12-19T14:21:48.491Z,96.68
2018-12-19T14:24:17.182Z,96.93
2018-12-19T14:26:45.733Z,97.24
2018-12-19T14:29:14.695Z,97.20
2018-12-19T14:31:45.604Z,97.59
2018-12-19T14:34:14.588Z,98.28
2018-12-19T14:36:43.212Z,97.65
2018-12-19T14:39:11.853Z,97.85
2018-12-19T14:41:41.015Z,97.58
2018-12-19T14:44:09.903Z,97.84
2018-12-19T14:46:38.485Z,98.19
2018-12-19T14:49:13.751Z,98.47
2018-12-19T14:51:38.361Z,99.31
2018-12-19T14:54:06.968Z,98.86
2018-12-19T14:56:36.111Z,99.26
2018-12-19T14:59:05.444Z,98.97
2018-12-19T15:01:34.037Z,99.23
2018-12-19T15:04:02.559Z,99.06
2018-12-19T15:06:31.815Z,98.77
2018-12-19T15:09:00.419Z,99.20
2018-12-19T15:11:30.471Z,99.43
2018-12-19T15:13:59.012Z,99.55
2018-12-19T15:16:29.844Z,99.84
2018-12-19T15:18:59.242Z,100.00
2018-12-19T15:21:28.371Z,100.00
2018-12-19T15:23:57.002Z,100.00
2018-12-19T15:26:25.636Z,100.00
2018-12-19T15:28:54.831Z,100.00
2018-12-19T15:31:23.560Z,100.00
2018-12-19T15:33:52.361Z,100.00
2018-12-19T15:36:21.954Z,100.00
2018-12-19T15:38:50.607Z,100.00
2018-12-19T15:41:19.342Z,100.00
2018-12-19T15:43:48.093Z,99.92
2018-12-19T15:46:16.764Z,100.00
2018-12-19T15:48:45.546Z,100.00
2018-12-19T15:51:14.347Z,100.00
2018-12-19T15:53:43.507Z,99.72
2018-12-19T15:56:12.176Z,99.55
2018-12-19T15:58:41.127Z,100.00
2018-12-19T16:01:10.029Z,100.00
2018-12-19T16:03:38.575Z,100.00
2018-12-19T16:06:08.420Z,100.00
2018-12-19T16:08:36.937Z,100.00
2018-12-19T16:11:05.691Z,100.00
2018-12-19T16:13:35.040Z,100.00
2018-12-19T16:16:04.697Z,100.00
2018-12-19T16:18:36.448Z,100.00
2018-12-19T16:21:07.447Z,100.00
2018-12-19T16:23:37.010Z,100.00
2018-12-19T16:26:07.953Z,99.30
2018-12-19T16:28:37.665Z,98.96
2018-12-19T16:31:07.861Z,99.78
2018-12-19T16:33:37.860Z,100.00
2018-12-19T16:36:08.518Z,100.00
2018-12-19T16:38:37.207Z,100.00
2018-12-19T16:41:06.517Z,100.00
2018-12-19T16:43:36.919Z,100.00
2018-12-19T16:46:07.134Z,100.00
2018-12-19T16:48:37.389Z,100.00
2018-12-19T16:51:08.281Z,100.00
2018-12-19T16:53:37.754Z,100.00
2018-12-19T16:56:07.086Z,100.00
2018-12-19T16:58:36.946Z,100.00
2018-12-19T17:01:06.918Z,100.00
2018-12-19T17:03:35.877Z,100.00
2018-12-19T17:06:04.946Z,100.00
2018-12-19T17:08:34.295Z,100.00
2018-12-19T17:11:03.672Z,100.00
2018-12-19T17:13:32.314Z,100.00
2018-12-19T17:16:01.074Z,100.00
2018-12-19T17:18:29.697Z,100.00
2018-12-19T17:20:59.167Z,100.00
2018-12-19T17:23:28.838Z,100.00
2018-12-19T17:25:58.196Z,100.00
2018-12-19T17:28:27.096Z,100.00
2018-12-19T17:30:55.854Z,100.00
2018-12-19T17:33:25.349Z,100.00
2018-12-19T17:35:54.674Z,100.00
2018-12-19T17:38:23.343Z,100.00
2018-12-19T17:40:54.673Z,100.00
2018-12-19T17:43:23.862Z,100.00
2018-12-19T17:45:52.729Z,100.00
2018-12-19T17:48:21.453Z,100.00
2018-12-19T17:50:50.266Z,100.00
2018-12-19T17:53:18.824Z,100.00
2018-12-19T17:55:47.417Z,100.00
2018-12-19T17:58:17.025Z,100.00
2018-12-19T18:00:45.686Z,100.00
2018-12-19T18:03:14.609Z,100.00
2018-12-19T18:05:43.134Z,100.00
2018-12-19T18:08:11.744Z,100.00
2018-12-19T18:10:40.449Z,100.00
2018-12-19T18:13:14.354Z,100.00
2018-12-19T18:15:44.058Z,100.00
2018-12-19T18:18:12.989Z,100.00
2018-12-19T18:20:43.090Z,100.00
2018-12-19T18:23:11.974Z,100.00
2018-12-19T18:25:40.882Z,100.00
2018-12-19T18:28:13.210Z,100.00
2018-12-19T18:30:41.874Z,100.00
2018-12-19T18:33:10.998Z,100.00
2018-12-19T18:35:39.752Z,100.00
2018-12-19T18:38:09.857Z,100.00
2018-12-19T18:40:38.581Z,100.00
2018-12-19T18:43:12.862Z,100.00
2018-12-19T18:45:40.090Z,100.00
2018-12-19T18:48:09.702Z,100.00
2018-12-19T18:50:38.301Z,100.00
2018-12-19T18:53:07.948Z,100.00
2018-12-19T18:55:36.554Z,99.85
2018-12-19T18:58:05.642Z,100.00
2018-12-19T19:03:23.813Z,99.53
2018-12-19T19:05:52.686Z,99.62
2018-12-19T19:08:22.903Z,99.91
2018-12-19T19:10:51.474Z,99.90
2018-12-19T19:13:20.105Z,99.61
2018-12-19T19:15:50.152Z,99.31
2018-12-19T19:18:18.860Z,99.35
2018-12-19T19:20:48.817Z,99.81
2018-12-19T19:23:27.697Z,99.94
2018-12-19T19:25:57.160Z,99.88
2018-12-19T19:28:26.854Z,100.00
2018-12-19T19:30:56.070Z,100.00
2018-12-19T19:33:24.713Z,100.00
2018-12-19T19:35:53.458Z,100.00
2018-12-19T19:38:22.149Z,100.00
2018-12-19T19:40:50.688Z,100.00
2018-12-19T19:43:19.321Z,100.00
2018-12-19T19:45:48.803Z,100.00
2018-12-19T19:48:17.497Z,100.00
2018-12-19T19:50:48.261Z,100.00
2018-12-19T19:53:19.048Z,100.00
2018-12-19T19:55:48.498Z,100.00
2018-12-19T19:58:17.679Z,100.00
2018-12-19T20:00:49.477Z,100.00
2018-12-19T20:03:18.098Z,100.00
2018-12-19T20:05:47.637Z,100.00
2018-12-19T20:08:16.301Z,100.00
2018-12-19T20:10:44.965Z,100.00
2018-12-19T20:13:13.536Z,100.00
2018-12-19T20:15:42.385Z,100.00
2018-12-19T20:18:13.009Z,100.00
2018-12-19T20:20:42.023Z,100.00
2018-12-19T20:23:10.725Z,100.00
2018-12-19T20:25:39.365Z,100.00
2018-12-19T20:28:10.358Z,100.00
2018-12-19T20:30:38.949Z,100.00
2018-12-19T20:33:07.931Z,100.00
2018-12-19T20:35:36.493Z,100.00
2018-12-19T20:38:05.789Z,100.00
2018-12-19T20:40:35.007Z,100.00
2018-12-19T20:43:06.805Z,100.00
2018-12-19T20:45:35.010Z,100.00
2018-12-19T20:48:03.520Z,100.00
2018-12-19T20:50:32.207Z,100.00
2018-12-19T20:53:00.735Z,100.00
2018-12-19T20:55:29.768Z,100.00
2018-12-19T20:57:58.450Z,100.00
2018-12-19T21:00:29.246Z,100.00
2018-12-19T21:02:58.080Z,100.00
2018-12-19T21:05:27.627Z,100.00
2018-12-19T21:07:56.216Z,100.00
2018-12-19T21:10:26.017Z,100.00
2018-12-19T21:12:55.067Z,100.00
2018-12-19T21:15:23.535Z,100.00
2018-12-19T21:17:57.398Z,100.00
2018-12-19T21:20:26.478Z,100.00
2018-12-19T21:22:55.054Z,100.00
2018-12-19T21:25:23.582Z,100.00
2018-12-19T21:27:52.194Z,100.00
2018-12-19T21:30:20.910Z,100.00
2018-12-19T21:32:51.124Z,100.00
2018-12-19T21:35:20.321Z,100.00
2018-12-19T21:37:49.492Z,100.00
2018-12-19T21:40:19.018Z,100.00
2018-12-19T21:42:48.644Z,100.00
2018-12-19T21:45:17.223Z,100.00
2018-12-19T21:47:45.916Z,100.00
2018-12-19T21:50:14.478Z,100.00
2018-12-19T21:52:43.146Z,100.00
2018-12-19T21:55:11.624Z,100.00
2018-12-19T21:57:40.848Z,100.00
2018-12-19T22:00:13.863Z,100.00
2018-12-19T22:02:43.011Z,100.00
2018-12-19T22:05:11.766Z,100.00
2018-12-19T22:07:41.027Z,100.00
2018-12-19T22:10:10.799Z,100.00
2018-12-19T22:12:39.542Z,100.00
2018-12-19T22:15:09.057Z,100.00
2018-12-19T22:17:43.065Z,100.00
2018-12-19T22:20:11.779Z,100.00
2018-12-19T22:22:40.751Z,100.00
2018-12-19T22:25:09.814Z,100.00
2018-12-19T22:27:38.559Z,100.00
2018-12-19T22:30:07.451Z,100.00
2018-12-19T22:32:35.945Z,100.00
2018-12-19T22:35:04.622Z,100.00
2018-12-19T22:37:33.384Z,100.00
2018-12-19T22:40:02.194Z,100.00
2018-12-19T22:42:30.932Z,100.00
2018-12-19T22:44:59.680Z,100.00
2018-12-19T22:47:29.283Z,100.00
2018-12-19T22:49:58.010Z,100.00
2018-12-19T22:52:26.689Z,100.00
2018-12-19T22:54:55.254Z,100.00
2018-12-19T22:57:23.772Z,100.00
2018-12-19T22:59:52.341Z,100.00
2018-12-19T23:02:26.068Z,100.00
2018-12-19T23:04:54.554Z,100.00
2018-12-19T23:07:23.274Z,100.00
2018-12-19T23:09:52.824Z,100.00
2018-12-19T23:12:21.479Z,100.00
2018-12-19T23:14:50.418Z,100.00
2018-12-19T23:17:52.750Z,100.00
2018-12-19T23:20:22.265Z,100.00
2018-12-19T23:22:51.024Z,100.00
2018-12-19T23:25:19.620Z,100.00
2018-12-19T23:27:48.471Z,100.00
2018-12-19T23:30:17.106Z,100.00
2018-12-19T23:32:45.904Z,100.00
2018-12-19T23:35:15.563Z,100.00
2018-12-19T23:37:44.991Z,100.00
2018-12-19T23:40:13.851Z,100.00
2018-12-19T23:42:42.531Z,100.00
2018-12-19T23:45:12.790Z,100.00
2018-12-19T23:47:41.598Z,100.00
2018-12-19T23:50:11.141Z,100.00
2018-12-19T23:52:39.832Z,100.00
2018-12-19T23:55:09.393Z,100.00
2018-12-19T23:57:39.279Z,100.00
